createdAt,value
2022-12-27T00:02:18.356Z,94501.63
2022-12-27T00:04:44.775Z,94508.16
2022-12-27T00:07:11.165Z,94520.97
2022-12-27T00:09:37.580Z,94520.31
2022-12-27T00:12:04.332Z,94514.75
2022-12-27T00:14:44.038Z,94525.50
2022-12-27T00:17:10.419Z,94527.88
2022-12-27T00:19:36.815Z,94545.84
2022-12-27T00:22:05.252Z,94539.53
2022-12-27T00:24:31.647Z,94538.53
2022-12-27T00:26:58.015Z,94521.25
2022-12-27T00:29:24.429Z,94537.72
2022-12-27T00:31:50.982Z,94540.56
2022-12-27T00:34:17.433Z,94534.75
2022-12-27T00:36:44.982Z,94532.41
2022-12-27T00:39:11.681Z,94547.16
2022-12-27T00:41:38.937Z,94538.03
2022-12-27T00:44:05.467Z,94546.34
2022-12-27T00:46:31.868Z,94550.31
2022-12-27T00:48:58.665Z,94558.47
2022-12-27T00:51:25.506Z,94540.19
2022-12-27T00:53:52.961Z,94556.34
2022-12-27T00:56:22.401Z,94568.75
2022-12-27T00:58:53.388Z,94575.72
2022-12-27T01:01:21.689Z,94563.28
2022-12-27T01:03:48.182Z,94560.00
2022-12-27T01:06:19.505Z,94585.63
2022-12-27T01:08:47.097Z,94565.28
2022-12-27T01:11:19.536Z,94574.44
2022-12-27T01:13:46.100Z,94561.31
2022-12-27T01:16:23.491Z,94565.38
2022-12-27T01:18:50.459Z,94570.16
2022-12-27T01:21:20.624Z,94603.94
2022-12-27T01:23:48.101Z,94594.09
2022-12-27T01:26:18.246Z,94588.59
2022-12-27T01:28:45.212Z,94564.97
2022-12-27T01:31:15.075Z,94592.91
2022-12-27T01:33:42.469Z,94590.63
2022-12-27T01:36:08.793Z,94616.19
2022-12-27T01:38:35.229Z,94590.75
2022-12-27T01:41:21.631Z,94612.69
2022-12-27T01:43:48.090Z,94622.81
2022-12-27T01:46:14.657Z,94634.03
2022-12-27T01:48:41.389Z,94641.59
2022-12-27T01:51:09.192Z,94631.84
2022-12-27T01:53:43.580Z,94668.84
2022-12-27T01:56:39.937Z,94646.53
2022-12-27T01:59:09.443Z,94631.06
2022-12-27T02:01:42.777Z,94667.53
2022-12-27T02:04:14.649Z,94667.38
2022-12-27T02:06:41.929Z,94673.78
2022-12-27T02:09:34.526Z,94677.31
2022-12-27T02:12:02.985Z,94654.97
2022-12-27T02:14:33.150Z,94676.47
2022-12-27T02:17:02.549Z,94684.91
2022-12-27T02:19:34.863Z,94693.63
2022-12-27T02:22:13.713Z,94686.59
2022-12-27T02:24:58.332Z,94702.75
2022-12-27T02:27:56.996Z,94705.22
2022-12-27T02:30:24.021Z,94693.66
2022-12-27T02:32:58.240Z,94704.97
2022-12-27T02:35:36.664Z,94703.44
2022-12-27T02:38:18.501Z,94701.25
2022-12-27T02:41:05.147Z,94720.88
2022-12-27T02:43:50.950Z,94689.03
2022-12-27T02:46:48.885Z,94734.19
2022-12-27T02:49:48.977Z,94737.97
2022-12-27T02:52:49.176Z,94747.56
2022-12-27T02:56:07.315Z,94738.03
2022-12-27T02:59:14.449Z,94746.47
2022-12-27T03:02:22.116Z,94765.53
2022-12-27T03:05:08.786Z,94762.00
2022-12-27T03:07:51.292Z,94766.59
2022-12-27T03:11:05.311Z,94758.16
2022-12-27T03:14:05.441Z,94751.66
2022-12-27T03:16:41.512Z,94758.28
2022-12-27T03:19:40.660Z,94785.41
2022-12-27T03:22:28.248Z,94771.50
2022-12-27T03:25:15.605Z,94779.97
2022-12-27T03:28:06.468Z,94778.81
2022-12-27T03:31:12.335Z,94784.41
2022-12-27T03:33:41.748Z,94773.63
2022-12-27T03:36:34.553Z,94776.84
2022-12-27T03:39:15.435Z,94789.53
2022-12-27T03:42:12.264Z,94804.88
2022-12-27T03:44:39.635Z,94787.16
2022-12-27T03:47:23.044Z,94779.06
2022-12-27T03:49:56.873Z,94806.84
2022-12-27T03:52:42.218Z,94780.28
2022-12-27T03:55:09.903Z,94786.72
2022-12-27T03:57:37.370Z,94787.25
2022-12-27T04:00:09.363Z,94796.53
2022-12-27T04:02:35.976Z,94799.78
2022-12-27T04:05:02.556Z,94823.22
2022-12-27T04:07:28.982Z,94797.06
2022-12-27T04:10:13.989Z,94798.56
2022-12-27T04:12:58.859Z,94825.13
2022-12-27T04:15:43.856Z,94796.81
2022-12-27T04:18:28.686Z,94818.75
2022-12-27T04:21:13.509Z,94824.06
2022-12-27T04:23:58.431Z,94828.25
2022-12-27T04:26:43.101Z,94819.97
2022-12-27T04:29:27.808Z,94837.41
2022-12-27T04:32:13.044Z,94818.06
2022-12-27T04:34:45.063Z,94833.19
2022-12-27T04:37:14.843Z,94837.94
2022-12-27T04:39:42.385Z,94816.97
2022-12-27T04:42:28.583Z,94825.97
2022-12-27T04:45:15.521Z,94846.13
2022-12-27T04:48:00.877Z,94836.19
2022-12-27T04:50:50.604Z,94829.25
2022-12-27T04:53:38.004Z,94854.28
2022-12-27T04:56:05.469Z,94855.66
2022-12-27T04:58:32.787Z,94858.66
2022-12-27T05:01:37.212Z,94856.19
2022-12-27T05:04:03.821Z,94849.69
2022-12-27T05:06:40.761Z,94849.94
2022-12-27T05:09:25.739Z,94845.31
2022-12-27T05:12:20.793Z,94827.31
2022-12-27T05:14:47.160Z,94854.25
2022-12-27T05:17:13.722Z,94847.19
2022-12-27T05:19:40.100Z,94851.25
2022-12-27T05:22:25.128Z,94847.88
2022-12-27T05:25:10.046Z,94846.88
2022-12-27T05:27:36.422Z,94847.97
2022-12-27T05:30:02.926Z,94868.16
2022-12-27T05:32:29.343Z,94864.72
2022-12-27T05:34:55.746Z,94874.97
2022-12-27T05:37:22.143Z,94841.72
2022-12-27T05:39:48.539Z,94858.88
2022-12-27T05:42:14.973Z,94857.53
2022-12-27T05:44:41.368Z,94861.47
2022-12-27T05:47:07.748Z,94867.84
2022-12-27T05:49:34.129Z,94863.16
2022-12-27T05:52:00.512Z,94856.34
2022-12-27T05:54:26.906Z,94869.97
2022-12-27T05:56:53.288Z,94861.38
2022-12-27T05:59:19.773Z,94838.56
2022-12-27T06:01:46.340Z,94851.38
2022-12-27T06:04:12.924Z,94842.44
2022-12-27T06:06:39.351Z,94877.59
2022-12-27T06:09:05.751Z,94867.47
2022-12-27T06:11:32.237Z,94862.47
2022-12-27T06:13:58.624Z,94852.50
2022-12-27T06:16:25.075Z,94856.47
2022-12-27T06:18:51.520Z,94856.03
2022-12-27T06:21:20.528Z,94885.22
2022-12-27T06:23:48.278Z,94886.00
2022-12-27T06:26:20.371Z,94881.53
2022-12-27T06:28:48.939Z,94879.44
2022-12-27T06:31:19.362Z,94863.94
2022-12-27T06:33:46.587Z,94851.84
2022-12-27T06:36:15.299Z,94868.06
2022-12-27T06:38:42.192Z,94869.03
2022-12-27T06:41:10.938Z,94863.44
2022-12-27T06:43:37.944Z,94866.44
2022-12-27T06:46:07.130Z,94880.47
2022-12-27T06:48:33.986Z,94891.50
2022-12-27T06:51:04.186Z,94877.59
2022-12-27T06:53:30.664Z,94878.84
2022-12-27T06:56:06.876Z,94856.63
2022-12-27T06:58:33.598Z,94889.34
2022-12-27T07:01:11.147Z,94874.34
2022-12-27T07:03:37.984Z,94885.53
2022-12-27T07:06:06.053Z,94896.56
2022-12-27T07:08:32.985Z,94879.81
2022-12-27T07:11:02.175Z,94868.59
2022-12-27T07:13:29.508Z,94867.50
2022-12-27T07:15:55.928Z,94871.59
2022-12-27T07:18:22.320Z,94899.94
2022-12-27T07:20:48.714Z,94866.16
2022-12-27T07:23:19.406Z,94873.50
2022-12-27T07:25:46.023Z,94838.88
2022-12-27T07:28:14.928Z,94894.78
2022-12-27T07:30:42.330Z,94907.84
2022-12-27T07:33:09.148Z,94883.88
2022-12-27T07:35:38.505Z,94873.00
2022-12-27T07:38:07.251Z,94900.13
2022-12-27T07:40:36.807Z,94913.50
2022-12-27T07:43:03.583Z,94906.19
2022-12-27T07:45:30.216Z,94899.78
2022-12-27T07:47:56.637Z,94888.34
2022-12-27T07:50:23.088Z,94912.72
2022-12-27T07:52:50.089Z,94906.75
2022-12-27T07:55:16.509Z,94913.56
2022-12-27T07:57:42.893Z,94904.47
2022-12-27T08:00:09.990Z,94887.94
2022-12-27T08:02:36.392Z,94914.69
2022-12-27T08:05:02.848Z,94910.06
2022-12-27T08:07:29.282Z,94899.16
2022-12-27T08:09:55.669Z,94914.56
2022-12-27T08:12:22.124Z,94899.41
2022-12-27T08:14:49.635Z,94894.78
2022-12-27T08:17:25.201Z,94898.78
2022-12-27T08:19:52.272Z,94924.53
2022-12-27T08:22:18.899Z,94922.91
2022-12-27T08:24:45.416Z,94894.88
2022-12-27T08:27:12.275Z,94909.03
2022-12-27T08:29:38.670Z,94889.94
2022-12-27T08:32:05.448Z,94877.16
2022-12-27T08:34:31.854Z,94891.34
2022-12-27T08:36:58.256Z,94892.69
2022-12-27T08:39:24.721Z,94901.28
2022-12-27T08:41:56.307Z,94907.94
2022-12-27T08:44:24.788Z,94909.34
2022-12-27T08:46:51.439Z,94905.78
2022-12-27T08:49:17.891Z,94910.69
2022-12-27T08:51:51.213Z,94905.91
2022-12-27T08:54:17.602Z,94901.97
2022-12-27T08:56:47.193Z,94910.56
2022-12-27T08:59:14.603Z,94921.19
2022-12-27T09:01:41.116Z,94906.06
2022-12-27T09:04:08.682Z,94912.59
2022-12-27T09:06:35.106Z,94920.78
2022-12-27T09:09:01.613Z,94919.97
2022-12-27T09:11:33.272Z,94932.22
2022-12-27T09:14:06.847Z,94954.44
2022-12-27T09:16:36.510Z,94968.50
2022-12-27T09:19:04.504Z,94944.47
2022-12-27T09:21:34.046Z,94975.25
2022-12-27T09:24:00.484Z,94947.69
2022-12-27T09:26:37.253Z,94954.00
2022-12-27T09:29:04.791Z,94943.09
2022-12-27T09:31:33.471Z,94967.63
2022-12-27T09:33:59.954Z,94925.22
2022-12-27T09:36:28.729Z,94947.28
2022-12-27T09:38:56.726Z,94950.81
2022-12-27T09:42:44.543Z,94968.16
2022-12-27T09:45:12.533Z,94947.44
2022-12-27T09:48:00.304Z,94966.56
2022-12-27T09:50:47.131Z,94942.03
